createdAt,value
2019-06-20T00:00:53.481Z,19.24
2019-06-20T00:03:25.423Z,19.14
2019-06-20T00:05:57.403Z,18.99
2019-06-20T00:08:29.376Z,19.04
2019-06-20T00:11:01.347Z,18.89
2019-06-20T00:13:33.319Z,18.84
2019-06-20T00:16:05.329Z,18.64
2019-06-20T00:18:37.282Z,18.61
2019-06-20T00:21:09.285Z,18.62
2019-06-20T00:23:41.246Z,18.62
2019-06-20T00:26:13.353Z,18.77
2019-06-20T00:28:45.318Z,18.94
2019-06-20T00:31:17.294Z,19.00
2019-06-20T00:33:49.255Z,18.99
2019-06-20T00:36:21.291Z,18.93
2019-06-20T00:38:53.267Z,18.86
2019-06-20T00:41:25.229Z,18.85
2019-06-20T00:43:57.188Z,18.87
2019-06-20T00:46:29.203Z,18.92
2019-06-20T00:49:01.187Z,18.91
2019-06-20T00:52:04.697Z,18.89
2019-06-20T00:54:36.678Z,18.87
2019-06-20T00:57:08.662Z,18.79
2019-06-20T00:59:40.628Z,18.90
2019-06-20T01:02:12.584Z,18.94
2019-06-20T01:04:44.527Z,18.95
2019-06-20T01:07:16.511Z,19.00
2019-06-20T01:09:48.480Z,19.06
2019-06-20T01:12:20.619Z,19.09
2019-06-20T01:14:52.554Z,19.15
2019-06-20T01:17:24.549Z,19.11
2019-06-20T01:19:58.316Z,19.10
2019-06-20T01:22:30.385Z,19.15
2019-06-20T01:25:02.333Z,19.14
2019-06-20T01:27:34.700Z,19.18
2019-06-20T01:30:07.200Z,19.22
2019-06-20T01:32:39.175Z,19.20
2019-06-20T01:35:11.335Z,19.16
2019-06-20T01:37:43.327Z,19.19
2019-06-20T01:40:15.291Z,19.15
2019-06-20T01:42:47.254Z,19.13
2019-06-20T01:45:19.198Z,19.10
2019-06-20T01:47:51.160Z,19.09
2019-06-20T01:50:23.112Z,19.15
2019-06-20T01:52:55.078Z,19.16
2019-06-20T01:55:27.033Z,19.12
2019-06-20T01:57:58.984Z,19.16
2019-06-20T02:00:42.993Z,19.15
2019-06-20T02:03:15.548Z,19.17
2019-06-20T02:05:47.790Z,19.04
2019-06-20T02:08:19.780Z,18.97
2019-06-20T02:10:51.745Z,18.98
2019-06-20T02:13:23.710Z,18.94
2019-06-20T02:15:55.696Z,18.95
2019-06-20T02:18:27.682Z,18.95
2019-06-20T02:20:59.632Z,18.89
2019-06-20T02:23:31.607Z,18.90
2019-06-20T02:26:03.612Z,18.87
2019-06-20T02:28:35.636Z,18.86
2019-06-20T02:31:07.626Z,18.87
2019-06-20T02:33:39.590Z,18.91
2019-06-20T02:36:11.565Z,18.89
2019-06-20T02:38:43.509Z,18.86
2019-06-20T02:41:15.469Z,18.85
2019-06-20T02:43:47.456Z,18.81
2019-06-20T02:46:19.442Z,18.76
2019-06-20T02:48:51.419Z,18.76
2019-06-20T02:51:24.806Z,18.73
2019-06-20T02:53:56.773Z,18.80
2019-06-20T02:56:28.747Z,18.79
2019-06-20T02:59:00.745Z,18.97
2019-06-20T03:01:32.690Z,18.90
2019-06-20T03:04:04.671Z,18.84
2019-06-20T03:06:36.636Z,18.65
2019-06-20T03:09:08.561Z,18.57
2019-06-20T03:11:40.514Z,18.41
2019-06-20T03:14:12.588Z,18.40
2019-06-20T03:16:44.570Z,18.33
2019-06-20T03:19:16.543Z,18.35
2019-06-20T03:21:48.514Z,18.31
2019-06-20T03:24:20.453Z,18.29
2019-06-20T03:26:52.426Z,18.19
2019-06-20T03:29:24.358Z,18.20
2019-06-20T03:31:56.338Z,18.22
2019-06-20T03:34:28.236Z,18.30
2019-06-20T03:37:00.193Z,18.39
2019-06-20T03:39:32.121Z,18.39
2019-06-20T03:42:04.099Z,18.40
2019-06-20T03:44:36.045Z,18.43
2019-06-20T03:47:08.028Z,18.44
2019-06-20T03:49:39.957Z,18.49
2019-06-20T03:52:11.934Z,18.50
2019-06-20T03:54:43.977Z,18.54
2019-06-20T03:57:15.988Z,18.56
2019-06-20T03:59:47.921Z,18.61
2019-06-20T04:02:19.886Z,18.63
2019-06-20T04:04:51.861Z,18.68
2019-06-20T04:07:23.863Z,18.69
2019-06-20T04:09:55.854Z,18.71
2019-06-20T04:12:27.800Z,18.72
2019-06-20T04:14:59.780Z,18.75
2019-06-20T04:17:31.767Z,18.74
2019-06-20T04:20:04.025Z,18.74
2019-06-20T04:22:36.018Z,18.74
2019-06-20T04:25:07.986Z,18.71
2019-06-20T04:27:39.934Z,18.66
2019-06-20T04:30:11.897Z,18.71
2019-06-20T04:32:44.121Z,18.78
2019-06-20T04:35:16.085Z,18.82
2019-06-20T04:37:48.204Z,18.82
2019-06-20T04:40:20.217Z,18.92
2019-06-20T04:42:52.229Z,18.82
2019-06-20T04:45:35.049Z,18.73
2019-06-20T04:48:05.048Z,18.74
2019-06-20T04:50:37.144Z,18.59
2019-06-20T04:53:09.109Z,18.45
2019-06-20T04:55:41.074Z,18.41
2019-06-20T04:58:13.044Z,18.29
2019-06-20T05:00:44.989Z,18.30
2019-06-20T05:03:16.990Z,18.31
2019-06-20T05:05:48.908Z,18.39
2019-06-20T05:08:20.873Z,18.27
2019-06-20T05:10:52.831Z,18.18
2019-06-20T05:13:24.935Z,18.07
2019-06-20T05:15:56.906Z,18.12
2019-06-20T05:18:28.918Z,18.15
2019-06-20T05:21:00.865Z,18.09
2019-06-20T05:23:32.839Z,18.05
2019-06-20T05:26:04.826Z,18.05
2019-06-20T05:28:36.746Z,18.01
2019-06-20T05:31:08.716Z,18.06
2019-06-20T05:33:40.669Z,18.11
2019-06-20T05:36:12.616Z,17.93
2019-06-20T05:38:44.581Z,17.82
2019-06-20T05:41:16.563Z,17.92
2019-06-20T05:43:48.519Z,17.88
2019-06-20T05:46:20.487Z,17.88
2019-06-20T05:48:52.462Z,17.94
2019-06-20T05:51:24.443Z,17.98
2019-06-20T05:53:56.832Z,17.96
2019-06-20T05:56:28.829Z,18.04
2019-06-20T05:59:00.746Z,18.04
2019-06-20T06:01:32.723Z,18.00
2019-06-20T06:04:04.795Z,18.04
2019-06-20T06:06:36.808Z,18.12
2019-06-20T06:09:17.338Z,18.18
2019-06-20T06:11:49.354Z,18.25
2019-06-20T06:14:21.309Z,18.35
2019-06-20T06:16:53.325Z,18.46
2019-06-20T06:19:32.058Z,18.69
2019-06-20T06:22:04.054Z,18.82
2019-06-20T06:24:36.026Z,19.12
2019-06-20T06:27:08.011Z,19.61
2019-06-20T06:29:39.983Z,19.78
2019-06-20T06:32:11.948Z,19.92
2019-06-20T06:34:43.930Z,20.22
2019-06-20T06:37:15.907Z,20.61
2019-06-20T06:39:47.837Z,21.29
2019-06-20T06:42:20.084Z,21.65
2019-06-20T06:44:52.036Z,21.45
2019-06-20T06:47:24.077Z,21.41
2019-06-20T06:49:56.076Z,21.40
2019-06-20T06:52:28.222Z,21.42
2019-06-20T06:55:00.326Z,21.39
2019-06-20T06:57:32.292Z,21.32
2019-06-20T07:00:06.904Z,21.50
2019-06-20T07:02:38.897Z,21.48
2019-06-20T07:05:11.442Z,21.95
2019-06-20T07:07:43.405Z,22.59
2019-06-20T07:10:15.678Z,23.04
2019-06-20T07:12:47.639Z,23.33
2019-06-20T07:15:20.397Z,23.78
2019-06-20T07:17:52.407Z,24.03
2019-06-20T07:20:24.386Z,24.27
2019-06-20T07:22:56.412Z,24.48
2019-06-20T07:25:28.412Z,24.67
2019-06-20T07:28:00.402Z,25.01
2019-06-20T07:30:32.463Z,25.26
2019-06-20T07:33:04.493Z,25.41
2019-06-20T07:35:36.611Z,24.84
2019-06-20T07:38:08.574Z,24.83
2019-06-20T07:40:40.563Z,25.14
2019-06-20T07:43:12.546Z,25.45
2019-06-20T07:45:58.474Z,25.50
2019-06-20T07:48:18.469Z,25.27
2019-06-20T07:50:50.432Z,25.12
2019-06-20T07:53:22.434Z,25.47
2019-06-20T07:55:54.437Z,25.68
2019-06-20T07:58:26.403Z,25.77
2019-06-20T08:00:58.373Z,25.87
2019-06-20T08:03:30.367Z,25.95
2019-06-20T08:06:02.380Z,25.50
2019-06-20T08:08:36.932Z,25.50
2019-06-20T08:11:08.929Z,25.46
2019-06-20T08:13:42.651Z,25.53
2019-06-20T08:16:14.725Z,25.49
2019-06-20T08:18:46.714Z,25.52
2019-06-20T08:21:18.699Z,25.53
2019-06-20T08:23:50.692Z,25.97
2019-06-20T08:26:22.675Z,25.98
2019-06-20T08:29:10.508Z,25.47
2019-06-20T08:31:28.586Z,25.26
2019-06-20T08:34:00.568Z,24.97
2019-06-20T08:36:32.555Z,25.30
2019-06-20T08:39:07.758Z,25.29
2019-06-20T08:41:39.765Z,25.39
2019-06-20T08:44:11.729Z,25.23
2019-06-20T08:46:43.700Z,25.50
2019-06-20T08:49:15.778Z,25.55
2019-06-20T08:51:47.791Z,25.79
2019-06-20T08:54:19.765Z,25.55
2019-06-20T08:56:51.755Z,25.60
2019-06-20T08:59:24.879Z,25.56
2019-06-20T09:01:58.791Z,25.67
2019-06-20T09:04:30.955Z,25.88
2019-06-20T09:09:36.072Z,26.57
2019-06-20T09:12:08.043Z,26.73
2019-06-20T09:14:40.056Z,26.78
2019-06-20T09:17:12.110Z,26.95
2019-06-20T09:19:44.072Z,26.78
2019-06-20T09:22:16.076Z,26.47
2019-06-20T09:24:48.084Z,26.57
2019-06-20T09:27:20.153Z,26.56
2019-06-20T09:29:53.260Z,26.43
2019-06-20T09:32:26.059Z,26.48
2019-06-20T09:34:58.690Z,26.62
2019-06-20T09:37:30.802Z,26.92
2019-06-20T09:40:03.763Z,26.85
2019-06-20T09:42:36.923Z,26.88
2019-06-20T09:45:09.273Z,27.06
2019-06-20T09:47:41.619Z,26.99
2019-06-20T09:50:14.244Z,26.89
2019-06-20T09:52:49.787Z,26.89
2019-06-20T09:55:20.195Z,26.92
2019-06-20T09:57:53.622Z,26.60
2019-06-20T10:00:26.380Z,26.49
2019-06-20T10:02:58.476Z,26.49
2019-06-20T10:05:30.510Z,26.51
2019-06-20T10:08:02.585Z,26.47
2019-06-20T10:10:35.177Z,26.21
2019-06-20T10:13:07.217Z,26.17
2019-06-20T10:15:41.053Z,26.25
2019-06-20T10:18:13.051Z,26.59
2019-06-20T10:20:46.096Z,26.59
2019-06-20T10:23:19.093Z,26.60
2019-06-20T10:25:51.509Z,26.43
2019-06-20T10:28:23.698Z,26.41
2019-06-20T10:30:55.958Z,26.43
2019-06-20T10:33:29.536Z,26.31
2019-06-20T10:36:01.543Z,26.54
2019-06-20T10:38:33.550Z,26.51
2019-06-20T10:41:05.536Z,26.72
2019-06-20T10:43:37.558Z,26.91
2019-06-20T10:46:09.593Z,26.87
2019-06-20T10:48:42.620Z,26.88
2019-06-20T10:51:50.269Z,26.72
2019-06-20T10:54:22.343Z,26.72
2019-06-20T10:56:54.362Z,26.94
2019-06-20T10:59:26.350Z,27.05
2019-06-20T11:01:58.356Z,27.05
2019-06-20T11:04:30.315Z,27.08
2019-06-20T11:07:02.327Z,27.02
2019-06-20T11:09:34.336Z,26.80
2019-06-20T11:12:06.344Z,26.92
2019-06-20T11:14:39.146Z,27.16
2019-06-20T11:17:12.300Z,27.33
2019-06-20T11:19:45.753Z,27.56
2019-06-20T11:22:17.980Z,27.30
2019-06-20T11:24:49.995Z,27.30
2019-06-20T11:27:22.015Z,27.27
2019-06-20T11:29:54.001Z,27.49
2019-06-20T11:32:26.068Z,27.36
2019-06-20T11:34:58.079Z,27.49
2019-06-20T11:37:30.122Z,27.61
2019-06-20T11:40:02.233Z,27.54
2019-06-20T11:42:34.698Z,27.75
2019-06-20T11:45:08.405Z,27.56
2019-06-20T11:47:40.560Z,27.25
2019-06-20T11:50:13.731Z,27.25
2019-06-20T11:52:46.016Z,27.46
2019-06-20T11:55:19.952Z,27.54
2019-06-20T11:57:51.997Z,27.58
2019-06-20T12:00:24.191Z,27.40
2019-06-20T12:02:56.201Z,27.39
2019-06-20T12:05:28.240Z,27.37
2019-06-20T12:08:00.316Z,27.46
2019-06-20T12:10:32.339Z,27.46
2019-06-20T12:13:04.320Z,27.27
2019-06-20T12:15:36.318Z,26.95
2019-06-20T12:18:08.364Z,26.73
2019-06-20T12:20:41.132Z,26.49
2019-06-20T12:23:13.604Z,26.49
2019-06-20T12:25:46.557Z,26.19
2019-06-20T12:28:20.303Z,25.86
2019-06-20T12:30:52.356Z,25.79
2019-06-20T12:33:24.344Z,25.73
2019-06-20T12:35:56.370Z,25.76
2019-06-20T12:38:28.373Z,25.84
2019-06-20T12:41:00.411Z,25.89
2019-06-20T12:43:32.419Z,25.92
2019-06-20T12:46:04.486Z,25.75
2019-06-20T12:48:36.523Z,25.71
2019-06-20T12:51:08.535Z,25.62
2019-06-20T12:53:41.893Z,25.55
2019-06-20T12:56:14.069Z,25.39
2019-06-20T12:58:46.678Z,25.26
2019-06-20T13:01:34.257Z,24.98
2019-06-20T13:03:52.884Z,24.89
2019-06-20T13:06:25.044Z,24.83
2019-06-20T13:08:57.094Z,24.57
2019-06-20T13:11:29.112Z,23.76
2019-06-20T13:14:01.145Z,22.78
2019-06-20T13:16:34.048Z,21.98
2019-06-20T13:19:06.011Z,21.67
2019-06-20T13:21:39.281Z,21.61
2019-06-20T13:24:11.963Z,21.65
2019-06-20T13:26:44.063Z,21.71
2019-06-20T13:29:16.035Z,21.50
2019-06-20T13:32:01.885Z,21.44
2019-06-20T13:34:21.930Z,21.57
2019-06-20T13:36:53.968Z,21.69
2019-06-20T13:39:25.948Z,21.68
2019-06-20T13:41:57.971Z,21.69
2019-06-20T13:44:29.995Z,21.86
2019-06-20T13:47:02.024Z,21.96
2019-06-20T13:49:33.982Z,22.03
2019-06-20T13:52:06.020Z,22.22
2019-06-20T13:54:39.660Z,22.44
2019-06-20T13:57:11.944Z,22.69
2019-06-20T13:59:43.933Z,22.93
2019-06-20T14:02:15.965Z,22.76
2019-06-20T14:04:48.353Z,22.66
2019-06-20T14:07:20.399Z,22.68
2019-06-20T14:09:52.398Z,22.63
2019-06-20T14:12:24.406Z,22.58
2019-06-20T14:14:56.429Z,22.48
2019-06-20T14:17:28.489Z,22.66
2019-06-20T14:20:00.517Z,23.07
2019-06-20T14:22:32.577Z,22.97
2019-06-20T14:25:04.832Z,23.09
2019-06-20T14:27:36.852Z,23.11
2019-06-20T14:30:09.273Z,23.24
2019-06-20T14:32:41.504Z,23.24
2019-06-20T14:35:16.378Z,23.35
2019-06-20T14:37:49.624Z,23.36
2019-06-20T14:40:22.464Z,23.41
2019-06-20T14:42:54.523Z,23.45
2019-06-20T14:45:26.510Z,23.53
2019-06-20T14:47:58.460Z,23.59
2019-06-20T14:50:30.490Z,23.69
2019-06-20T14:53:02.463Z,23.60
2019-06-20T14:55:34.488Z,23.49
2019-06-20T14:58:06.565Z,23.53
2019-06-20T15:00:38.680Z,23.44
2019-06-20T15:03:10.694Z,23.43
2019-06-20T15:05:44.768Z,23.53
2019-06-20T15:08:16.662Z,23.54
2019-06-20T15:10:50.122Z,23.56
2019-06-20T15:13:22.275Z,23.59
2019-06-20T15:15:55.385Z,23.58
2019-06-20T15:18:27.572Z,23.56
2019-06-20T15:20:59.635Z,23.61
2019-06-20T15:23:31.593Z,23.73
2019-06-20T15:26:03.669Z,23.86
2019-06-20T15:28:35.670Z,23.82
2019-06-20T15:31:07.677Z,23.80
2019-06-20T15:33:39.655Z,23.95
2019-06-20T15:36:11.680Z,23.81
2019-06-20T15:38:43.668Z,23.80
2019-06-20T15:41:15.755Z,23.75
2019-06-20T15:43:48.587Z,23.64
2019-06-20T15:46:21.695Z,23.63
2019-06-20T15:48:53.696Z,23.59
2019-06-20T15:51:25.735Z,23.58
2019-06-20T15:53:57.746Z,23.57
2019-06-20T15:56:29.816Z,23.61
2019-06-20T15:59:01.803Z,23.60
2019-06-20T16:01:33.814Z,23.50
2019-06-20T16:04:05.831Z,23.50
2019-06-20T16:06:37.822Z,23.41
2019-06-20T16:09:09.812Z,23.41
2019-06-20T16:11:41.807Z,23.41
2019-06-20T16:14:13.797Z,23.38
2019-06-20T16:16:45.822Z,23.33
2019-06-20T16:19:17.885Z,23.26
2019-06-20T16:21:49.890Z,23.35
2019-06-20T16:24:21.993Z,23.44
2019-06-20T16:26:54.299Z,23.43
2019-06-20T16:29:26.295Z,23.57
2019-06-20T16:31:58.299Z,23.56
2019-06-20T16:34:30.297Z,23.50
2019-06-20T16:37:09.982Z,23.54
2019-06-20T16:39:36.276Z,23.67
2019-06-20T16:42:08.307Z,23.63
2019-06-20T16:44:40.332Z,23.44
2019-06-20T16:47:12.380Z,23.36
2019-06-20T16:49:44.376Z,23.36
2019-06-20T16:52:16.399Z,23.33
2019-06-20T16:54:48.365Z,23.34
2019-06-20T16:57:20.422Z,23.44
2019-06-20T16:59:52.464Z,23.58
2019-06-20T17:02:24.474Z,23.75
2019-06-20T17:04:56.778Z,23.77
2019-06-20T17:07:28.807Z,23.80
2019-06-20T17:10:00.879Z,23.81
2019-06-20T17:12:32.884Z,23.79
2019-06-20T17:15:05.323Z,23.87
2019-06-20T17:17:37.437Z,23.89
2019-06-20T17:20:09.719Z,23.88
2019-06-20T17:22:41.850Z,23.83
2019-06-20T17:25:14.386Z,23.80
2019-06-20T17:27:46.415Z,23.81
2019-06-20T17:30:19.240Z,23.86
2019-06-20T17:32:51.298Z,23.83
2019-06-20T17:35:23.324Z,23.61
2019-06-20T17:37:55.364Z,23.19
2019-06-20T17:40:27.604Z,22.82
2019-06-20T17:42:59.644Z,22.48
2019-06-20T17:45:31.710Z,22.30
2019-06-20T17:48:03.894Z,22.10
2019-06-20T17:50:35.980Z,21.98
2019-06-20T17:53:07.995Z,21.84
2019-06-20T17:55:40.055Z,21.72
2019-06-20T17:58:12.092Z,21.63
2019-06-20T18:00:44.160Z,21.54
2019-06-20T18:03:16.183Z,21.36
2019-06-20T18:05:48.240Z,21.19
2019-06-20T18:08:20.266Z,21.09
2019-06-20T18:10:52.329Z,21.01
2019-06-20T18:13:24.275Z,20.99
2019-06-20T18:15:56.366Z,20.99
2019-06-20T18:18:28.364Z,20.98
2019-06-20T18:21:00.373Z,20.91
2019-06-20T18:23:37.651Z,20.93
2019-06-20T18:26:09.811Z,20.90
2019-06-20T18:28:41.797Z,20.96
2019-06-20T18:31:13.939Z,20.93
2019-06-20T18:33:45.906Z,20.91
2019-06-20T18:36:17.964Z,20.90
2019-06-20T18:38:50.001Z,20.90
2019-06-20T18:41:22.066Z,20.88
2019-06-20T18:43:54.088Z,20.94
2019-06-20T18:46:26.157Z,20.95
2019-06-20T18:48:58.203Z,20.95
2019-06-20T18:51:30.252Z,20.93
2019-06-20T18:54:02.281Z,20.97
2019-06-20T18:56:34.332Z,20.93
2019-06-20T18:59:06.400Z,20.95
2019-06-20T19:01:38.509Z,20.90
2019-06-20T19:04:10.522Z,20.93
2019-06-20T19:06:42.603Z,20.95
2019-06-20T19:09:14.644Z,20.94
2019-06-20T19:11:46.749Z,20.96
2019-06-20T19:14:18.768Z,20.96
2019-06-20T19:16:50.927Z,20.99
2019-06-20T19:19:22.937Z,21.03
2019-06-20T19:21:54.961Z,20.99
2019-06-20T19:24:27.027Z,20.90
2019-06-20T19:26:59.064Z,20.88
2019-06-20T19:29:31.126Z,20.83
2019-06-20T19:32:03.148Z,20.77
2019-06-20T19:34:35.206Z,20.75
2019-06-20T19:37:07.261Z,20.73
2019-06-20T19:39:39.283Z,20.65
2019-06-20T19:42:11.263Z,20.68
2019-06-20T19:44:43.321Z,20.66
2019-06-20T19:47:15.352Z,20.69
2019-06-20T19:49:47.453Z,20.72
2019-06-20T19:52:19.467Z,20.70
2019-06-20T19:54:51.516Z,20.70
2019-06-20T19:57:23.561Z,20.74
2019-06-20T19:59:55.594Z,20.73
2019-06-20T20:02:27.671Z,20.69
2019-06-20T20:04:59.724Z,20.63
2019-06-20T20:07:31.795Z,20.65
2019-06-20T20:10:04.676Z,20.65
2019-06-20T20:12:36.727Z,20.62
2019-06-20T20:15:08.805Z,20.60
2019-06-20T20:17:40.833Z,20.59
2019-06-20T20:20:13.102Z,20.56
2019-06-20T20:22:45.093Z,20.51
2019-06-20T20:25:17.158Z,20.51
2019-06-20T20:27:49.221Z,20.47
2019-06-20T20:30:21.671Z,20.42
2019-06-20T20:32:56.969Z,20.38
2019-06-20T20:35:35.371Z,20.35
2019-06-20T20:38:03.201Z,20.35
2019-06-20T20:40:35.330Z,20.37
2019-06-20T20:43:07.368Z,20.32
2019-06-20T20:45:39.829Z,20.29
2019-06-20T20:48:11.939Z,20.28
2019-06-20T20:50:44.063Z,20.23
2019-06-20T20:53:16.766Z,20.29
2019-06-20T20:55:53.377Z,20.18
2019-06-20T20:58:26.474Z,20.08
2019-06-20T21:01:09.240Z,20.05
2019-06-20T21:03:41.278Z,20.03
2019-06-20T21:06:13.332Z,20.05
2019-06-20T21:08:45.372Z,20.03
2019-06-20T21:11:17.414Z,20.02
2019-06-20T21:13:49.453Z,19.98
2019-06-20T21:16:21.539Z,19.92
2019-06-20T21:18:53.546Z,19.93
2019-06-20T21:21:25.549Z,19.93
2019-06-20T21:23:57.652Z,19.96
2019-06-20T21:26:29.700Z,19.94
2019-06-20T21:29:01.687Z,19.94
2019-06-20T21:31:33.744Z,19.93
2019-06-20T21:34:05.756Z,19.91
2019-06-20T21:36:37.835Z,19.87
2019-06-20T21:39:09.887Z,19.80
2019-06-20T21:41:41.914Z,19.70
2019-06-20T21:44:13.937Z,19.61
2019-06-20T21:46:46.011Z,19.53
2019-06-20T21:49:17.988Z,19.38
2019-06-20T21:51:50.036Z,19.25
2019-06-20T21:54:22.040Z,19.16
2019-06-20T21:56:54.100Z,19.04
2019-06-20T21:59:26.138Z,18.98
2019-06-20T22:01:58.164Z,18.84
2019-06-20T22:04:30.370Z,18.64
2019-06-20T22:07:02.434Z,18.48
2019-06-20T22:09:34.991Z,18.42
2019-06-20T22:12:06.976Z,18.42
2019-06-20T22:14:38.958Z,18.39
2019-06-20T22:17:10.936Z,18.56
2019-06-20T22:19:42.952Z,18.54
2019-06-20T22:22:14.935Z,18.49
2019-06-20T22:24:46.939Z,18.47
2019-06-20T22:27:18.954Z,18.51
2019-06-20T22:29:50.981Z,18.58
2019-06-20T22:32:22.972Z,18.62
2019-06-20T22:34:54.996Z,18.66
2019-06-20T22:37:26.963Z,18.79
2019-06-20T22:39:58.966Z,18.83
2019-06-20T22:42:30.972Z,18.83
2019-06-20T22:45:06.726Z,18.86
2019-06-20T22:47:37.229Z,18.85
2019-06-20T22:50:09.562Z,18.88
2019-06-20T22:52:41.524Z,18.92
2019-06-20T22:55:13.782Z,18.90
2019-06-20T22:57:45.767Z,18.90
2019-06-20T23:00:17.778Z,18.90
2019-06-20T23:02:49.768Z,18.85
2019-06-20T23:05:21.744Z,18.87
2019-06-20T23:07:53.710Z,18.89
2019-06-20T23:10:25.701Z,18.84
2019-06-20T23:12:57.665Z,18.85
2019-06-20T23:15:29.645Z,18.85
2019-06-20T23:18:01.632Z,18.86
2019-06-20T23:20:33.676Z,18.80
2019-06-20T23:23:05.647Z,18.73
2019-06-20T23:25:39.885Z,18.76
2019-06-20T23:28:11.820Z,18.74
2019-06-20T23:30:43.821Z,18.75
2019-06-20T23:33:15.781Z,18.73
2019-06-20T23:35:47.763Z,18.72
2019-06-20T23:38:19.701Z,18.69
2019-06-20T23:40:51.704Z,18.75
2019-06-20T23:43:23.687Z,18.75
2019-06-20T23:45:55.678Z,18.68
2019-06-20T23:48:27.635Z,18.62
2019-06-20T23:50:59.609Z,18.55
2019-06-20T23:53:31.539Z,18.45
2019-06-20T23:56:07.135Z,18.51
2019-06-20T23:58:37.438Z,18.52
